createdAt,value
2022-12-11T00:02:10.272Z,21.23
2022-12-11T00:04:38.862Z,20.33
2022-12-11T00:07:07.163Z,20.27
2022-12-11T00:09:35.493Z,24.40
2022-12-11T00:12:07.452Z,24.17
2022-12-11T00:14:36.416Z,22.87
2022-12-11T00:17:05.059Z,22.47
2022-12-11T00:19:33.704Z,23.57
2022-12-11T00:22:01.972Z,21.90
2022-12-11T00:24:30.260Z,22.60
2022-12-11T00:26:58.515Z,21.77
2022-12-11T00:29:28.209Z,21.23
2022-12-11T00:31:56.496Z,22.80
2022-12-11T00:34:24.830Z,21.23
2022-12-11T00:36:53.158Z,24.17
2022-12-11T00:39:22.069Z,24.37
2022-12-11T00:41:50.285Z,20.53
2022-12-11T00:44:19.657Z,20.80
2022-12-11T00:46:49.297Z,24.00
2022-12-11T00:49:17.587Z,21.73
2022-12-11T00:51:45.901Z,23.90
2022-12-11T00:54:14.180Z,24.10
2022-12-11T00:56:42.387Z,23.30
2022-12-11T00:59:10.760Z,19.67
2022-12-11T01:01:39.976Z,22.00
2022-12-11T01:04:17.363Z,24.67
2022-12-11T01:06:45.610Z,24.03
2022-12-11T01:09:39.816Z,25.07
2022-12-11T01:12:08.351Z,25.50
2022-12-11T01:14:36.556Z,30.03
2022-12-11T01:17:05.131Z,25.80
2022-12-11T01:19:34.763Z,21.47
2022-12-11T01:22:03.135Z,23.27
2022-12-11T01:24:31.449Z,24.03
2022-12-11T01:26:59.709Z,24.27
2022-12-11T01:29:27.964Z,26.23
2022-12-11T01:31:56.226Z,25.07
2022-12-11T01:34:24.523Z,24.53
2022-12-11T01:37:02.420Z,24.87
2022-12-11T01:39:31.157Z,22.47
2022-12-11T01:42:00.735Z,27.60
2022-12-11T01:45:26.878Z,30.33
2022-12-11T01:48:03.322Z,24.60
2022-12-11T01:50:35.077Z,28.17
2022-12-11T01:53:08.196Z,26.43
2022-12-11T01:55:36.866Z,26.83
2022-12-11T01:58:05.707Z,29.23
2022-12-11T02:00:35.779Z,24.93
2022-12-11T02:03:04.366Z,25.30
2022-12-11T02:05:32.688Z,25.83
2022-12-11T02:08:04.395Z,28.73
2022-12-11T02:10:47.448Z,25.33
2022-12-11T02:13:22.449Z,23.33
2022-12-11T02:15:59.605Z,26.83
2022-12-11T02:18:36.748Z,27.53
2022-12-11T02:21:12.394Z,25.90
2022-12-11T02:24:05.469Z,25.77
2022-12-11T02:27:01.488Z,26.63
2022-12-11T02:29:38.344Z,28.50
2022-12-11T02:32:15.005Z,27.17
2022-12-11T02:34:46.431Z,22.97
2022-12-11T02:37:21.794Z,28.90
2022-12-11T02:39:53.395Z,25.67
2022-12-11T02:42:23.000Z,26.33
2022-12-11T02:44:55.209Z,25.70
2022-12-11T02:47:24.699Z,27.37
2022-12-11T02:49:55.492Z,26.80
2022-12-11T02:52:26.410Z,25.97
2022-12-11T02:54:58.052Z,28.70
2022-12-11T02:57:32.773Z,28.57
2022-12-11T03:00:02.662Z,24.97
2022-12-11T03:02:31.066Z,28.03
2022-12-11T03:05:00.594Z,25.43
2022-12-11T03:07:38.659Z,27.20
2022-12-11T03:10:10.911Z,25.93
2022-12-11T03:12:42.668Z,25.10
2022-12-11T03:15:18.363Z,25.17
2022-12-11T03:18:02.644Z,25.83
2022-12-11T03:20:39.121Z,22.83
2022-12-11T03:23:21.128Z,25.30
2022-12-11T03:25:55.619Z,22.83
2022-12-11T03:28:31.032Z,20.73
2022-12-11T03:31:06.615Z,16.37
2022-12-11T03:33:39.060Z,19.70
2022-12-11T03:36:11.606Z,18.07
2022-12-11T03:38:45.509Z,18.07
2022-12-11T03:41:15.463Z,16.97
2022-12-11T03:43:44.106Z,17.47
2022-12-11T03:46:15.197Z,20.80
2022-12-11T03:48:46.608Z,20.63
2022-12-11T03:51:16.607Z,21.13
2022-12-11T03:53:45.877Z,17.17
2022-12-11T03:56:16.107Z,19.80
2022-12-11T03:58:44.573Z,18.37
2022-12-11T04:01:14.294Z,17.40
2022-12-11T04:03:42.584Z,19.70
2022-12-11T04:06:10.842Z,17.17
2022-12-11T04:08:39.147Z,21.03
2022-12-11T04:11:25.048Z,19.10
2022-12-11T04:14:07.199Z,18.30
2022-12-11T04:16:36.906Z,17.10
2022-12-11T04:19:22.881Z,18.03
2022-12-11T04:22:08.814Z,16.37
2022-12-11T04:24:37.093Z,17.43
2022-12-11T04:27:05.364Z,17.67
2022-12-11T04:29:33.575Z,20.60
2022-12-11T04:32:03.180Z,18.20
2022-12-11T04:34:31.881Z,18.90
2022-12-11T04:37:00.138Z,17.23
2022-12-11T04:39:28.352Z,19.17
2022-12-11T04:41:56.927Z,18.47
2022-12-11T04:44:25.152Z,19.47
2022-12-11T04:46:53.359Z,18.50
2022-12-11T04:49:22.916Z,17.47
2022-12-11T04:51:51.108Z,18.57
2022-12-11T04:54:19.283Z,18.73
2022-12-11T04:56:54.917Z,16.93
2022-12-11T04:59:23.194Z,22.17
2022-12-11T05:01:51.524Z,18.00
2022-12-11T05:04:30.035Z,18.57
2022-12-11T05:06:58.461Z,17.17
2022-12-11T05:09:27.177Z,19.73
2022-12-11T05:11:56.288Z,18.90
2022-12-11T05:14:24.525Z,18.40
2022-12-11T05:16:52.769Z,18.07
2022-12-11T05:19:20.980Z,18.80
2022-12-11T05:21:50.541Z,18.37
2022-12-11T05:24:19.383Z,19.77
2022-12-11T05:26:47.618Z,16.37
2022-12-11T05:29:15.844Z,15.93
2022-12-11T05:31:44.230Z,18.23
2022-12-11T05:34:12.529Z,16.50
2022-12-11T05:36:40.994Z,14.93
2022-12-11T05:39:11.946Z,17.93
2022-12-11T05:41:40.455Z,16.47
2022-12-11T05:44:10.691Z,15.10
2022-12-11T05:46:38.997Z,17.27
2022-12-11T05:49:07.939Z,14.93
2022-12-11T05:51:36.491Z,16.10
2022-12-11T05:54:05.343Z,15.57
2022-12-11T05:56:36.939Z,17.73
2022-12-11T05:59:07.506Z,15.43
2022-12-11T06:01:37.898Z,16.70
2022-12-11T06:04:08.581Z,15.97
2022-12-11T06:06:37.391Z,16.97
2022-12-11T06:09:07.217Z,16.23
2022-12-11T06:11:37.527Z,16.47
2022-12-11T06:14:06.006Z,15.73
2022-12-11T06:16:34.340Z,18.17
2022-12-11T06:19:02.688Z,19.43
2022-12-11T06:21:33.260Z,22.23
2022-12-11T06:24:05.675Z,20.60
2022-12-11T06:26:36.179Z,18.63
2022-12-11T06:29:07.641Z,19.57
2022-12-11T06:31:39.141Z,20.00
2022-12-11T06:34:07.852Z,21.63
2022-12-11T06:36:36.277Z,21.13
2022-12-11T06:39:04.761Z,20.83
2022-12-11T06:41:33.028Z,20.63
2022-12-11T06:44:02.623Z,22.17
2022-12-11T06:46:30.860Z,21.77
2022-12-11T06:48:59.133Z,22.27
2022-12-11T06:51:27.441Z,82.77
2022-12-11T06:53:57.821Z,27.23
2022-12-11T06:56:26.736Z,23.47
2022-12-11T06:58:57.087Z,21.37
2022-12-11T07:01:28.912Z,25.70
2022-12-11T07:04:00.194Z,23.83
2022-12-11T07:06:54.164Z,23.07
2022-12-11T07:09:22.950Z,21.10
2022-12-11T07:11:51.260Z,19.40
2022-12-11T07:14:20.062Z,21.77
2022-12-11T07:16:49.698Z,22.37
2022-12-11T07:19:18.128Z,23.20
2022-12-11T07:21:46.781Z,20.97
2022-12-11T07:24:15.138Z,24.53
2022-12-11T07:26:43.622Z,25.47
2022-12-11T07:29:12.200Z,21.87
2022-12-11T07:31:40.695Z,26.53
2022-12-11T07:34:13.682Z,28.00
2022-12-11T07:36:42.207Z,28.13
2022-12-11T07:39:12.654Z,28.87
2022-12-11T07:41:41.299Z,27.50
2022-12-11T07:44:12.700Z,26.97
2022-12-11T07:46:41.637Z,27.23
2022-12-11T07:49:11.342Z,29.90
2022-12-11T07:51:41.157Z,30.73
2022-12-11T07:54:15.033Z,27.50
2022-12-11T07:56:45.701Z,28.40
2022-12-11T07:59:17.721Z,26.83
2022-12-11T08:01:46.350Z,29.50
2022-12-11T08:04:16.270Z,29.37
2022-12-11T08:06:45.007Z,33.43
2022-12-11T08:09:21.028Z,29.57
2022-12-11T08:11:51.440Z,35.00
2022-12-11T08:14:20.774Z,29.70
2022-12-11T08:16:50.097Z,31.53
2022-12-11T08:19:20.053Z,30.13
2022-12-11T08:21:48.600Z,24.83
2022-12-11T08:24:20.694Z,24.53
2022-12-11T08:26:49.708Z,29.73
2022-12-11T08:29:18.247Z,32.73
2022-12-11T08:31:46.878Z,29.37
2022-12-11T08:34:15.483Z,28.03
2022-12-11T08:36:45.670Z,26.47
2022-12-11T08:39:16.431Z,28.13
2022-12-11T08:41:44.961Z,26.57
2022-12-11T08:44:16.644Z,25.10
2022-12-11T08:46:45.788Z,23.23
2022-12-11T08:49:14.796Z,23.67
2022-12-11T08:51:44.682Z,23.13
2022-12-11T08:54:13.305Z,25.63
2022-12-11T08:56:41.840Z,24.37
2022-12-11T08:59:10.955Z,26.47
2022-12-11T09:01:39.579Z,27.13
2022-12-11T09:04:08.452Z,27.13
2022-12-11T09:06:37.206Z,29.70
2022-12-11T09:09:07.092Z,27.00
2022-12-11T09:11:37.653Z,27.53
2022-12-11T09:14:07.835Z,27.23
2022-12-11T09:16:41.293Z,28.37
2022-12-11T09:19:13.619Z,27.53
2022-12-11T09:21:43.109Z,30.97
2022-12-11T09:24:14.280Z,25.67
2022-12-11T09:26:43.086Z,28.33
2022-12-11T09:29:12.801Z,26.63
2022-12-11T09:31:41.505Z,25.97
2022-12-11T09:34:12.950Z,19.53
2022-12-11T09:36:42.134Z,18.47
2022-12-11T09:56:34.494Z,21.23
2022-12-11T09:59:09.784Z,22.30
2022-12-11T10:01:51.309Z,21.07
2022-12-11T10:04:35.810Z,21.70
2022-12-11T10:07:13.058Z,19.93
2022-12-11T10:09:51.344Z,22.73
2022-12-11T10:12:38.278Z,23.13
2022-12-11T10:15:32.315Z,24.57
2022-12-11T10:18:05.114Z,25.20
2022-12-11T10:20:39.449Z,28.57
2022-12-11T10:23:10.395Z,28.13
2022-12-11T10:25:43.888Z,29.60
2022-12-11T10:28:16.778Z,27.70
2022-12-11T10:30:52.818Z,20.17
2022-12-11T10:33:24.661Z,19.77
2022-12-11T10:35:55.065Z,19.87
2022-12-11T10:38:28.500Z,24.77
2022-12-11T10:41:00.225Z,24.60
2022-12-11T10:43:38.097Z,21.53
2022-12-11T10:46:13.319Z,23.97
2022-12-11T10:48:47.732Z,22.27
2022-12-11T10:51:16.480Z,26.00
2022-12-11T10:53:51.152Z,25.30
2022-12-11T10:56:27.558Z,26.07
2022-12-11T10:58:59.220Z,26.10
2022-12-11T11:01:30.431Z,25.53
2022-12-11T11:07:14.452Z,26.27
2022-12-11T11:09:42.950Z,29.73
2022-12-11T11:12:24.305Z,33.53
2022-12-11T11:15:06.653Z,27.57
2022-12-11T11:17:52.781Z,30.80
2022-12-11T11:20:26.636Z,31.93
2022-12-11T11:22:59.795Z,30.00
2022-12-11T11:25:31.744Z,26.77
2022-12-11T11:28:02.905Z,24.60
2022-12-11T11:30:35.449Z,28.23
2022-12-11T11:33:06.954Z,26.17
2022-12-11T11:35:35.263Z,31.93
2022-12-11T11:38:11.028Z,25.10
2022-12-11T11:40:45.931Z,30.77
2022-12-11T11:43:22.700Z,29.17
2022-12-11T11:45:56.890Z,31.03
2022-12-11T11:48:41.928Z,27.13
2022-12-11T11:51:17.375Z,25.63
2022-12-11T11:53:51.142Z,23.87
2022-12-11T11:56:24.013Z,25.73
2022-12-11T11:59:03.066Z,20.73
2022-12-11T12:01:33.064Z,25.20
2022-12-11T12:04:05.079Z,27.60
2022-12-11T12:06:58.937Z,27.67
2022-12-11T12:09:43.594Z,27.13
2022-12-11T12:12:31.037Z,27.40
2022-12-11T12:15:22.129Z,27.27
2022-12-11T12:17:56.334Z,27.67
2022-12-11T12:20:44.606Z,27.57
2022-12-11T12:23:38.261Z,29.80
2022-12-11T12:26:16.425Z,39.37
2022-12-11T12:28:53.907Z,36.10
2022-12-11T12:31:40.885Z,35.30
2022-12-11T12:34:19.538Z,35.47
2022-12-11T12:37:00.324Z,38.50
2022-12-11T12:39:40.886Z,37.43
2022-12-11T12:42:19.760Z,43.73
2022-12-11T12:45:00.259Z,41.07
2022-12-11T12:47:32.445Z,35.90
2022-12-11T12:50:04.078Z,42.77
2022-12-11T12:52:35.179Z,39.13
2022-12-11T12:55:15.051Z,38.37
2022-12-11T12:57:46.990Z,36.17
2022-12-11T13:00:33.413Z,38.03
2022-12-11T13:03:14.153Z,32.40
2022-12-11T13:05:55.541Z,32.70
2022-12-11T13:08:27.480Z,33.47
2022-12-11T13:11:03.817Z,31.00
2022-12-11T13:13:38.304Z,28.80
2022-12-11T13:16:26.834Z,28.77
2022-12-11T13:18:55.618Z,28.07
2022-12-11T13:21:33.848Z,29.13
2022-12-11T13:24:18.576Z,28.80
2022-12-11T13:26:47.861Z,29.23
2022-12-11T13:29:35.418Z,31.20
2022-12-11T13:32:22.430Z,30.43
2022-12-11T13:34:57.481Z,33.33
2022-12-11T13:37:34.782Z,38.90
2022-12-11T13:40:08.341Z,39.70
2022-12-11T13:42:41.994Z,33.70
2022-12-11T13:45:22.983Z,31.90
2022-12-11T13:47:51.425Z,35.53
2022-12-11T13:50:26.563Z,34.97
2022-12-11T13:52:57.799Z,29.37
2022-12-11T13:55:30.715Z,30.57
2022-12-11T13:57:59.888Z,30.97
2022-12-11T14:00:32.598Z,31.47
2022-12-11T14:03:07.437Z,27.57
2022-12-11T14:05:36.930Z,31.40
2022-12-11T14:08:11.141Z,30.43
2022-12-11T14:10:41.200Z,29.87
2022-12-11T14:13:20.138Z,27.90
2022-12-11T14:15:48.910Z,29.90
2022-12-11T14:18:23.177Z,31.10
2022-12-11T14:20:56.775Z,30.20
2022-12-11T14:23:28.741Z,29.07
2022-12-11T14:25:59.079Z,30.37
2022-12-11T14:28:31.572Z,28.70
2022-12-11T14:31:02.136Z,31.13
2022-12-11T14:33:35.431Z,29.97
2022-12-11T14:36:04.880Z,30.40
2022-12-11T14:38:39.405Z,29.33
2022-12-11T14:41:16.068Z,30.13
2022-12-11T14:43:49.593Z,30.37
2022-12-11T14:46:23.500Z,28.57
2022-12-11T14:49:00.864Z,29.83
2022-12-11T14:51:34.233Z,29.77
2022-12-11T14:54:06.882Z,29.33
2022-12-11T14:56:35.900Z,30.07
2022-12-11T14:59:09.095Z,29.43
2022-12-11T15:01:38.657Z,30.23
2022-12-11T15:04:21.377Z,30.97
2022-12-11T15:06:52.295Z,31.00
2022-12-11T15:09:27.667Z,33.03
2022-12-11T15:12:00.159Z,36.83
2022-12-11T15:14:29.615Z,36.70
2022-12-11T15:16:58.811Z,42.03
2022-12-11T15:19:31.108Z,35.17
2022-12-11T15:22:04.698Z,32.73
2022-12-11T15:24:39.435Z,34.60
2022-12-11T15:27:22.910Z,37.20
2022-12-11T15:29:51.174Z,36.40
2022-12-11T15:32:22.136Z,34.90
2022-12-11T15:34:53.229Z,31.50
2022-12-11T15:37:24.698Z,33.17
2022-12-11T15:39:56.061Z,37.83
2022-12-11T15:42:28.283Z,32.10
2022-12-11T15:44:57.442Z,34.27
2022-12-11T15:47:28.653Z,33.07
2022-12-11T15:50:01.104Z,32.23
2022-12-11T15:52:29.634Z,32.90
2022-12-11T15:54:59.247Z,33.47
2022-12-11T15:57:27.510Z,30.47
2022-12-11T15:59:57.106Z,32.60
2022-12-11T16:02:26.826Z,38.20
2022-12-11T16:04:58.126Z,33.73
2022-12-11T16:07:27.579Z,31.60
2022-12-11T16:09:56.080Z,33.40
2022-12-11T16:12:25.679Z,31.47
2022-12-11T16:14:53.976Z,42.93
2022-12-11T16:17:22.160Z,35.93
2022-12-11T16:19:50.524Z,34.37
2022-12-11T16:22:19.449Z,30.43
2022-12-11T16:24:47.840Z,32.83
2022-12-11T16:27:21.450Z,30.23
2022-12-11T16:29:53.027Z,34.07
2022-12-11T16:32:21.600Z,33.07
2022-12-11T16:34:49.800Z,33.23
2022-12-11T16:37:17.975Z,31.63
2022-12-11T16:39:46.884Z,32.27
2022-12-11T16:42:15.158Z,32.17
2022-12-11T16:44:44.354Z,35.37
2022-12-11T16:47:14.129Z,30.10
2022-12-11T16:49:43.185Z,32.90
2022-12-11T16:52:11.637Z,29.13
2022-12-11T16:54:39.913Z,30.73
2022-12-11T16:57:08.179Z,30.67
2022-12-11T16:59:37.654Z,28.63
2022-12-11T17:02:06.431Z,31.17
2022-12-11T17:04:36.302Z,30.20
2022-12-11T17:07:05.517Z,27.63
2022-12-11T17:09:34.547Z,31.43
2022-12-11T17:12:03.142Z,28.83
2022-12-11T17:14:31.605Z,26.60
2022-12-11T17:16:59.802Z,29.97
2022-12-11T17:19:28.249Z,28.03
2022-12-11T17:21:58.953Z,26.37
2022-12-11T17:24:27.259Z,28.73
2022-12-11T17:26:56.267Z,31.33
2022-12-11T17:29:24.989Z,25.83
2022-12-11T17:31:53.227Z,27.83
2022-12-11T17:34:21.603Z,32.50
2022-12-11T17:36:49.858Z,32.07
2022-12-11T17:39:19.491Z,29.33
2022-12-11T17:41:48.074Z,29.23
2022-12-11T17:44:16.435Z,28.37
2022-12-11T17:46:44.712Z,27.60
2022-12-11T17:49:13.129Z,25.27
2022-12-11T17:51:41.371Z,27.93
2022-12-11T17:54:11.487Z,27.17
2022-12-11T17:56:41.120Z,28.23
2022-12-11T17:59:09.447Z,34.60
2022-12-11T18:01:37.718Z,32.93
2022-12-11T18:04:06.157Z,30.50
2022-12-11T18:06:34.818Z,30.87
2022-12-11T18:09:03.315Z,28.93
2022-12-11T18:11:31.824Z,31.60
2022-12-11T18:14:01.450Z,40.43
2022-12-11T18:16:33.423Z,38.37
2022-12-11T18:19:02.044Z,34.87
2022-12-11T18:21:34.457Z,30.80
2022-12-11T18:24:03.637Z,31.60
2022-12-11T18:26:32.342Z,29.33
2022-12-11T18:29:01.941Z,31.10
2022-12-11T18:31:31.234Z,32.43
2022-12-11T18:33:59.627Z,29.23
2022-12-11T18:36:28.207Z,30.83
2022-12-11T18:38:56.423Z,28.60
2022-12-11T18:41:24.895Z,32.03
2022-12-11T18:43:54.945Z,31.37
2022-12-11T18:46:24.892Z,31.27
2022-12-11T18:48:53.406Z,29.70
2022-12-11T18:51:23.991Z,28.57
2022-12-11T18:53:53.469Z,31.83
2022-12-11T18:56:24.143Z,31.57
2022-12-11T18:58:52.882Z,31.53
2022-12-11T19:01:47.791Z,30.90
2022-12-11T19:07:16.699Z,31.10
2022-12-11T19:09:48.087Z,29.70
2022-12-11T19:12:17.082Z,29.90
2022-12-11T19:14:45.434Z,31.87
2022-12-11T19:17:15.016Z,28.80
2022-12-11T19:19:46.087Z,32.23
2022-12-11T19:22:14.949Z,72.80
2022-12-11T19:24:43.299Z,31.13
2022-12-11T19:27:13.663Z,25.60
2022-12-11T19:29:42.414Z,31.00
2022-12-11T19:32:10.746Z,28.97
2022-12-11T19:34:41.183Z,33.43
2022-12-11T19:37:09.506Z,28.43
2022-12-11T19:39:40.096Z,29.13
2022-12-11T19:42:08.445Z,30.10
2022-12-11T19:44:36.762Z,28.90
2022-12-11T19:47:05.292Z,28.03
2022-12-11T19:49:33.634Z,29.23
2022-12-11T19:52:11.565Z,28.03
2022-12-11T19:54:39.853Z,27.23
2022-12-11T19:57:08.116Z,31.77
2022-12-11T19:59:36.346Z,31.07
2022-12-11T20:02:28.496Z,29.83
2022-12-11T20:04:56.773Z,27.80
2022-12-11T20:07:30.689Z,27.77
2022-12-11T20:10:00.190Z,27.57
2022-12-11T20:12:29.012Z,28.70
2022-12-11T20:14:57.265Z,32.03
2022-12-11T20:17:25.605Z,29.20
2022-12-11T20:19:53.864Z,31.40
2022-12-11T20:22:22.312Z,32.07
2022-12-11T20:24:52.040Z,31.50
2022-12-11T20:27:20.271Z,32.83
2022-12-11T20:29:48.482Z,29.73
2022-12-11T20:32:16.742Z,31.67
2022-12-11T20:34:45.377Z,30.80
2022-12-11T20:37:13.678Z,29.73
2022-12-11T20:39:41.954Z,28.70
2022-12-11T20:42:12.228Z,32.17
2022-12-11T20:44:45.530Z,30.87
2022-12-11T20:47:19.622Z,30.33
2022-12-11T20:49:48.191Z,28.93
2022-12-11T20:52:21.929Z,34.20
2022-12-11T20:54:50.211Z,32.57
2022-12-11T20:57:19.810Z,31.83
2022-12-11T20:59:49.446Z,33.17
2022-12-11T21:02:17.750Z,32.13
2022-12-11T21:04:46.060Z,33.93
2022-12-11T21:07:14.284Z,35.83
2022-12-11T21:09:42.531Z,31.50
2022-12-11T21:12:11.401Z,31.73
2022-12-11T21:14:41.096Z,32.83
2022-12-11T21:17:09.464Z,33.93
2022-12-11T21:19:37.816Z,31.60
2022-12-11T21:22:06.072Z,33.50
2022-12-11T21:24:34.337Z,36.13
2022-12-11T21:27:02.598Z,33.70
2022-12-11T21:29:30.961Z,32.33
2022-12-11T21:32:00.888Z,33.50
2022-12-11T21:34:29.768Z,35.37
2022-12-11T21:36:57.968Z,37.37
2022-12-11T21:39:28.232Z,36.97
2022-12-11T21:41:58.057Z,37.37
2022-12-11T21:47:16.910Z,35.53
2022-12-11T21:49:45.143Z,37.07
2022-12-11T21:52:14.285Z,39.77
2022-12-11T21:54:42.621Z,34.77
2022-12-11T21:57:10.853Z,36.00
2022-12-11T21:59:39.167Z,37.80
2022-12-11T22:02:07.471Z,35.93
2022-12-11T22:04:37.848Z,43.77
2022-12-11T22:07:06.610Z,37.70
2022-12-11T22:09:34.895Z,39.27
2022-12-11T22:12:03.136Z,34.57
2022-12-11T22:14:31.808Z,35.33
2022-12-11T22:17:00.889Z,32.47
2022-12-11T22:19:32.682Z,39.83
2022-12-11T22:22:02.546Z,37.83
2022-12-11T22:24:31.146Z,35.13
2022-12-11T22:26:59.369Z,39.17
2022-12-11T22:29:28.763Z,36.13
2022-12-11T22:31:57.049Z,34.53
2022-12-11T22:34:25.351Z,36.10
2022-12-11T22:36:54.145Z,35.17
2022-12-11T22:39:24.435Z,29.43
2022-12-11T22:41:52.706Z,37.17
2022-12-11T22:44:22.548Z,36.67
2022-12-11T22:46:50.944Z,34.87
2022-12-11T22:49:20.260Z,38.27
2022-12-11T22:51:51.478Z,37.17
2022-12-11T22:54:19.883Z,34.77
2022-12-11T22:56:49.673Z,36.03
2022-12-11T22:59:17.977Z,36.83
2022-12-11T23:01:48.867Z,35.90
2022-12-11T23:04:19.525Z,36.93
2022-12-11T23:06:48.215Z,37.57
2022-12-11T23:09:16.935Z,38.77
2022-12-11T23:11:45.194Z,38.60
2022-12-11T23:14:17.324Z,36.43
2022-12-11T23:16:45.711Z,35.00
2022-12-11T23:19:14.702Z,36.13
2022-12-11T23:21:44.030Z,34.70
2022-12-11T23:24:13.673Z,39.03
2022-12-11T23:26:42.293Z,34.40
2022-12-11T23:29:11.113Z,33.43
2022-12-11T23:31:40.740Z,33.60
2022-12-11T23:34:08.976Z,35.33
2022-12-11T23:36:37.295Z,34.77
2022-12-11T23:39:06.145Z,36.57
2022-12-11T23:41:34.493Z,31.13
2022-12-11T23:44:02.977Z,34.10
2022-12-11T23:46:31.706Z,37.33
2022-12-11T23:49:01.475Z,38.43
2022-12-11T23:51:29.904Z,35.97
2022-12-11T23:53:58.222Z,39.70
2022-12-11T23:56:29.564Z,35.77
2022-12-11T23:58:58.772Z,39.33
